sensor_id;sensor_type;location;lat;lon;timestamp;temperature;humidity
7598;DHT22;3840;59.32098800;18.06423600;2023-04-03T00:01:17;-2.70;99.90
7598;DHT22;3840;59.32098800;18.06423600;2023-04-03T00:03:43;-2.70;99.90
7598;DHT22;3840;59.32098800;18.06423600;2023-04-03T00:06:10;-2.70;99.90
7598;DHT22;3840;59.32098800;18.06423600;2023-04-03T00:08:37;-2.70;99.90
7598;DHT22;3840;59.32098800;18.06423600;2023-04-03T00:11:04;-2.70;99.90
7598;DHT22;3840;59.32098800;18.06423600;2023-04-03T00:13:30;-2.70;99.90
7598;DHT22;3840;59.32098800;18.06423600;2023-04-03T00:15:56;-2.80;99.90
7598;DHT22;3840;59.32098800;18.06423600;2023-04-03T00:18:22;-2.80;99.90
7598;DHT22;3840;59.32098800;18.06423600;2023-04-03T00:20:48;-2.80;99.90
7598;DHT22;3840;59.32098800;18.06423600;2023-04-03T00:23:14;-2.80;99.90
7598;DHT22;3840;59.32098800;18.06423600;2023-04-03T00:25:41;-2.80;99.90
7598;DHT22;3840;59.32098800;18.06423600;2023-04-03T00:28:07;-2.70;99.90
7598;DHT22;3840;59.32098800;18.06423600;2023-04-03T00:30:33;-2.80;99.90
7598;DHT22;3840;59.32098800;18.06423600;2023-04-03T00:32:59;-2.80;99.90
7598;DHT22;3840;59.32098800;18.06423600;2023-04-03T00:35:26;-2.80;99.90
7598;DHT22;3840;59.32098800;18.06423600;2023-04-03T00:37:54;-2.80;99.90
7598;DHT22;3840;59.32098800;18.06423600;2023-04-03T00:40:23;-2.90;99.90
7598;DHT22;3840;59.32098800;18.06423600;2023-04-03T00:42:52;-2.90;99.90
7598;DHT22;3840;59.32098800;18.06423600;2023-04-03T00:47:58;-2.90;99.90
7598;DHT22;3840;59.32098800;18.06423600;2023-04-03T00:50:27;-2.80;99.90
7598;DHT22;3840;59.32098800;18.06423600;2023-04-03T00:52:55;-2.90;99.90
7598;DHT22;3840;59.32098800;18.06423600;2023-04-03T00:55:21;-2.90;99.90
7598;DHT22;3840;59.32098800;18.06423600;2023-04-03T00:57:48;-2.90;99.90
7598;DHT22;3840;59.32098800;18.06423600;2023-04-03T01:00:17;-2.90;99.90
7598;DHT22;3840;59.32098800;18.06423600;2023-04-03T01:02:44;-2.90;99.90
7598;DHT22;3840;59.32098800;18.06423600;2023-04-03T01:05:11;-2.90;99.90
7598;DHT22;3840;59.32098800;18.06423600;2023-04-03T01:07:39;-1.90;99.90
7598;DHT22;3840;59.32098800;18.06423600;2023-04-03T01:10:09;-2.90;99.90
7598;DHT22;3840;59.32098800;18.06423600;2023-04-03T01:12:38;-2.90;99.90
7598;DHT22;3840;59.32098800;18.06423600;2023-04-03T01:15:30;-2.90;99.90
7598;DHT22;3840;59.32098800;18.06423600;2023-04-03T01:18:00;-2.90;99.90
7598;DHT22;3840;59.32098800;18.06423600;2023-04-03T01:25:51;-2.80;99.90
7598;DHT22;3840;59.32098800;18.06423600;2023-04-03T01:28:24;-2.90;99.90
7598;DHT22;3840;59.32098800;18.06423600;2023-04-03T01:33:37;-2.80;99.90
7598;DHT22;3840;59.32098800;18.06423600;2023-04-03T01:36:03;-2.80;99.90
7598;DHT22;3840;59.32098800;18.06423600;2023-04-03T01:38:30;-2.70;99.90
7598;DHT22;3840;59.32098800;18.06423600;2023-04-03T01:40:56;-2.80;99.90
7598;DHT22;3840;59.32098800;18.06423600;2023-04-03T01:43:21;-2.80;99.90
7598;DHT22;3840;59.32098800;18.06423600;2023-04-03T01:45:47;-2.70;99.90
7598;DHT22;3840;59.32098800;18.06423600;2023-04-03T01:48:14;-2.50;99.90
7598;DHT22;3840;59.32098800;18.06423600;2023-04-03T01:50:41;-2.70;99.90
7598;DHT22;3840;59.32098800;18.06423600;2023-04-03T01:53:07;-2.70;99.90
7598;DHT22;3840;59.32098800;18.06423600;2023-04-03T01:55:33;-2.70;99.90
7598;DHT22;3840;59.32098800;18.06423600;2023-04-03T01:57:59;-2.70;99.90
7598;DHT22;3840;59.32098800;18.06423600;2023-04-03T02:00:24;-2.70;99.90
7598;DHT22;3840;59.32098800;18.06423600;2023-04-03T02:02:52;-2.60;99.90
7598;DHT22;3840;59.32098800;18.06423600;2023-04-03T02:05:18;-2.70;99.90
7598;DHT22;3840;59.32098800;18.06423600;2023-04-03T02:07:44;-2.70;99.90
7598;DHT22;3840;59.32098800;18.06423600;2023-04-03T02:10:10;-2.70;99.90
7598;DHT22;3840;59.32098800;18.06423600;2023-04-03T02:12:36;-2.70;99.90
7598;DHT22;3840;59.32098800;18.06423600;2023-04-03T02:15:01;-2.70;99.90
7598;DHT22;3840;59.32098800;18.06423600;2023-04-03T02:17:27;-2.70;99.90
7598;DHT22;3840;59.32098800;18.06423600;2023-04-03T02:19:53;-2.70;99.90
7598;DHT22;3840;59.32098800;18.06423600;2023-04-03T02:22:18;-2.70;99.90
7598;DHT22;3840;59.32098800;18.06423600;2023-04-03T02:24:45;-2.70;99.90
7598;DHT22;3840;59.32098800;18.06423600;2023-04-03T02:27:11;-2.70;99.90
7598;DHT22;3840;59.32098800;18.06423600;2023-04-03T02:29:37;-2.70;99.90
7598;DHT22;3840;59.32098800;18.06423600;2023-04-03T02:32:02;-4.20;99.90
7598;DHT22;3840;59.32098800;18.06423600;2023-04-03T02:34:29;-2.70;99.90
7598;DHT22;3840;59.32098800;18.06423600;2023-04-03T02:36:54;-2.70;99.90
7598;DHT22;3840;59.32098800;18.06423600;2023-04-03T02:39:20;-2.70;99.90
7598;DHT22;3840;59.32098800;18.06423600;2023-04-03T02:41:46;-2.70;99.90
7598;DHT22;3840;59.32098800;18.06423600;2023-04-03T02:44:13;-2.70;99.90
7598;DHT22;3840;59.32098800;18.06423600;2023-04-03T02:46:39;-2.70;99.90
7598;DHT22;3840;59.32098800;18.06423600;2023-04-03T02:49:06;-2.70;99.90
7598;DHT22;3840;59.32098800;18.06423600;2023-04-03T02:51:32;-2.70;99.90
7598;DHT22;3840;59.32098800;18.06423600;2023-04-03T02:53:57;-2.70;99.90
7598;DHT22;3840;59.32098800;18.06423600;2023-04-03T02:56:23;-2.50;99.90
7598;DHT22;3840;59.32098800;18.06423600;2023-04-03T02:58:51;-2.80;99.90
7598;DHT22;3840;59.32098800;18.06423600;2023-04-03T03:01:16;-2.80;99.90
7598;DHT22;3840;59.32098800;18.06423600;2023-04-03T03:03:42;-2.90;99.90
7598;DHT22;3840;59.32098800;18.06423600;2023-04-03T03:06:11;-2.80;99.90
7598;DHT22;3840;59.32098800;18.06423600;2023-04-03T03:08:38;-2.80;99.90
7598;DHT22;3840;59.32098800;18.06423600;2023-04-03T03:11:04;-2.90;99.90
7598;DHT22;3840;59.32098800;18.06423600;2023-04-03T03:13:31;-2.90;99.90
7598;DHT22;3840;59.32098800;18.06423600;2023-04-03T03:15:57;-2.90;99.90
7598;DHT22;3840;59.32098800;18.06423600;2023-04-03T03:18:23;-2.90;99.90
7598;DHT22;3840;59.32098800;18.06423600;2023-04-03T03:20:56;-2.90;99.90
7598;DHT22;3840;59.32098800;18.06423600;2023-04-03T03:23:23;-2.90;99.90
7598;DHT22;3840;59.32098800;18.06423600;2023-04-03T03:26:04;-3.00;99.90
7598;DHT22;3840;59.32098800;18.06423600;2023-04-03T03:28:31;-3.00;99.90
7598;DHT22;3840;59.32098800;18.06423600;2023-04-03T03:31:00;-3.10;99.90
7598;DHT22;3840;59.32098800;18.06423600;2023-04-03T03:33:26;-3.10;99.90
7598;DHT22;3840;59.32098800;18.06423600;2023-04-03T03:35:53;-3.20;99.90
7598;DHT22;3840;59.32098800;18.06423600;2023-04-03T03:38:19;-3.20;99.90
7598;DHT22;3840;59.32098800;18.06423600;2023-04-03T03:40:47;-3.30;99.90
7598;DHT22;3840;59.32098800;18.06423600;2023-04-03T03:43:13;-3.30;99.90
7598;DHT22;3840;59.32098800;18.06423600;2023-04-03T03:45:38;-3.30;99.90
7598;DHT22;3840;59.32098800;18.06423600;2023-04-03T03:48:04;-3.30;99.90
7598;DHT22;3840;59.32098800;18.06423600;2023-04-03T03:50:32;-3.30;99.90
7598;DHT22;3840;59.32098800;18.06423600;2023-04-03T03:52:57;-3.30;99.90
7598;DHT22;3840;59.32098800;18.06423600;2023-04-03T03:55:23;-3.30;99.90
7598;DHT22;3840;59.32098800;18.06423600;2023-04-03T03:57:49;-3.40;99.90
7598;DHT22;3840;59.32098800;18.06423600;2023-04-03T04:00:15;-3.30;99.90
7598;DHT22;3840;59.32098800;18.06423600;2023-04-03T04:02:40;-3.30;99.90
7598;DHT22;3840;59.32098800;18.06423600;2023-04-03T04:05:06;-3.30;99.90
7598;DHT22;3840;59.32098800;18.06423600;2023-04-03T04:07:32;-3.30;99.90
7598;DHT22;3840;59.32098800;18.06423600;2023-04-03T04:09:58;-3.00;99.90
7598;DHT22;3840;59.32098800;18.06423600;2023-04-03T04:12:24;-3.30;99.90
7598;DHT22;3840;59.32098800;18.06423600;2023-04-03T04:14:51;-3.30;99.90
7598;DHT22;3840;59.32098800;18.06423600;2023-04-03T04:17:17;-3.40;99.90
7598;DHT22;3840;59.32098800;18.06423600;2023-04-03T04:19:43;-3.30;99.90
7598;DHT22;3840;59.32098800;18.06423600;2023-04-03T04:22:10;-3.30;99.90
7598;DHT22;3840;59.32098800;18.06423600;2023-04-03T04:24:37;-3.30;99.90
7598;DHT22;3840;59.32098800;18.06423600;2023-04-03T04:27:02;-3.30;99.90
7598;DHT22;3840;59.32098800;18.06423600;2023-04-03T04:29:28;-3.10;99.90
7598;DHT22;3840;59.32098800;18.06423600;2023-04-03T04:31:54;-3.30;99.90
7598;DHT22;3840;59.32098800;18.06423600;2023-04-03T04:34:19;-3.20;99.90
7598;DHT22;3840;59.32098800;18.06423600;2023-04-03T04:36:45;-3.30;99.90
7598;DHT22;3840;59.32098800;18.06423600;2023-04-03T04:39:12;-3.20;99.90
7598;DHT22;3840;59.32098800;18.06423600;2023-04-03T04:41:38;-3.20;99.90
7598;DHT22;3840;59.32098800;18.06423600;2023-04-03T04:44:03;-3.30;99.90
7598;DHT22;3840;59.32098800;18.06423600;2023-04-03T04:46:29;-3.20;99.90
7598;DHT22;3840;59.32098800;18.06423600;2023-04-03T04:48:56;-3.20;99.90
7598;DHT22;3840;59.32098800;18.06423600;2023-04-03T04:51:22;-3.20;99.90
7598;DHT22;3840;59.32098800;18.06423600;2023-04-03T04:53:48;-3.20;99.90
7598;DHT22;3840;59.32098800;18.06423600;2023-04-03T04:56:14;-3.10;99.90
7598;DHT22;3840;59.32098800;18.06423600;2023-04-03T04:58:41;-3.10;99.90
7598;DHT22;3840;59.32098800;18.06423600;2023-04-03T05:01:09;-3.10;99.90
7598;DHT22;3840;59.32098800;18.06423600;2023-04-03T05:03:36;-3.00;99.90
7598;DHT22;3840;59.32098800;18.06423600;2023-04-03T05:06:02;-3.00;99.90
7598;DHT22;3840;59.32098800;18.06423600;2023-04-03T05:08:28;-3.00;99.90
7598;DHT22;3840;59.32098800;18.06423600;2023-04-03T05:10:53;-2.80;99.90
7598;DHT22;3840;59.32098800;18.06423600;2023-04-03T05:13:20;-2.70;99.90
7598;DHT22;3840;59.32098800;18.06423600;2023-04-03T05:15:46;-3.00;99.90
7598;DHT22;3840;59.32098800;18.06423600;2023-04-03T05:18:14;-3.00;99.90
7598;DHT22;3840;59.32098800;18.06423600;2023-04-03T05:20:39;-2.90;99.90
7598;DHT22;3840;59.32098800;18.06423600;2023-04-03T05:23:05;-2.90;99.90
7598;DHT22;3840;59.32098800;18.06423600;2023-04-03T05:25:31;-2.80;99.90
7598;DHT22;3840;59.32098800;18.06423600;2023-04-03T05:27:57;-2.80;99.90
7598;DHT22;3840;59.32098800;18.06423600;2023-04-03T05:30:24;-2.80;99.90
7598;DHT22;3840;59.32098800;18.06423600;2023-04-03T05:32:51;-2.70;99.90
7598;DHT22;3840;59.32098800;18.06423600;2023-04-03T05:35:17;-2.60;99.90
7598;DHT22;3840;59.32098800;18.06423600;2023-04-03T05:37:42;-2.60;99.90
7598;DHT22;3840;59.32098800;18.06423600;2023-04-03T05:40:08;-2.50;99.90
7598;DHT22;3840;59.32098800;18.06423600;2023-04-03T05:42:34;-2.50;99.90
7598;DHT22;3840;59.32098800;18.06423600;2023-04-03T05:45:00;-2.50;99.90
7598;DHT22;3840;59.32098800;18.06423600;2023-04-03T05:47:26;-2.40;99.90
7598;DHT22;3840;59.32098800;18.06423600;2023-04-03T05:49:51;-2.30;99.90
7598;DHT22;3840;59.32098800;18.06423600;2023-04-03T05:52:20;-2.30;99.90
7598;DHT22;3840;59.32098800;18.06423600;2023-04-03T05:54:46;-2.30;99.90
7598;DHT22;3840;59.32098800;18.06423600;2023-04-03T05:57:16;-2.10;99.90
7598;DHT22;3840;59.32098800;18.06423600;2023-04-03T05:59:43;-2.10;99.90
7598;DHT22;3840;59.32098800;18.06423600;2023-04-03T06:02:19;-1.50;99.90
7598;DHT22;3840;59.32098800;18.06423600;2023-04-03T06:04:45;-2.00;99.90
7598;DHT22;3840;59.32098800;18.06423600;2023-04-03T06:07:13;-2.00;99.90
7598;DHT22;3840;59.32098800;18.06423600;2023-04-03T06:09:39;-2.00;99.90
7598;DHT22;3840;59.32098800;18.06423600;2023-04-03T06:12:05;-1.90;99.90
7598;DHT22;3840;59.32098800;18.06423600;2023-04-03T06:14:31;-1.90;99.90
7598;DHT22;3840;59.32098800;18.06423600;2023-04-03T06:16:57;-1.80;99.90
7598;DHT22;3840;59.32098800;18.06423600;2023-04-03T06:19:23;-1.70;99.90
7598;DHT22;3840;59.32098800;18.06423600;2023-04-03T06:21:50;-1.60;99.90
7598;DHT22;3840;59.32098800;18.06423600;2023-04-03T06:24:16;-1.50;99.90
7598;DHT22;3840;59.32098800;18.06423600;2023-04-03T06:26:42;-1.50;99.90
7598;DHT22;3840;59.32098800;18.06423600;2023-04-03T06:29:08;-1.10;99.90
7598;DHT22;3840;59.32098800;18.06423600;2023-04-03T06:31:34;-1.30;99.90
7598;DHT22;3840;59.32098800;18.06423600;2023-04-03T06:34:02;-1.20;99.90
7598;DHT22;3840;59.32098800;18.06423600;2023-04-03T06:36:29;-1.20;99.90
7598;DHT22;3840;59.32098800;18.06423600;2023-04-03T06:38:55;-1.10;99.90
7598;DHT22;3840;59.32098800;18.06423600;2023-04-03T06:41:21;-1.00;99.90
7598;DHT22;3840;59.32098800;18.06423600;2023-04-03T06:43:47;-1.00;99.90
7598;DHT22;3840;59.32098800;18.06423600;2023-04-03T06:46:20;-0.90;99.90
7598;DHT22;3840;59.32098800;18.06423600;2023-04-03T06:48:46;-0.80;99.90
7598;DHT22;3840;59.32098800;18.06423600;2023-04-03T06:51:19;-0.80;99.90
7598;DHT22;3840;59.32098800;18.06423600;2023-04-03T06:53:47;-0.70;99.90
7598;DHT22;3840;59.32098800;18.06423600;2023-04-03T06:56:15;-0.60;99.90
7598;DHT22;3840;59.32098800;18.06423600;2023-04-03T06:58:42;-0.60;99.90
7598;DHT22;3840;59.32098800;18.06423600;2023-04-03T07:01:09;-0.70;99.90
7598;DHT22;3840;59.32098800;18.06423600;2023-04-03T07:03:36;-0.60;99.90
7598;DHT22;3840;59.32098800;18.06423600;2023-04-03T07:06:04;-0.60;99.90
7598;DHT22;3840;59.32098800;18.06423600;2023-04-03T07:08:30;-0.50;99.90
7598;DHT22;3840;59.32098800;18.06423600;2023-04-03T07:10:56;-0.60;99.90
7598;DHT22;3840;59.32098800;18.06423600;2023-04-03T07:13:22;-0.50;99.90
7598;DHT22;3840;59.32098800;18.06423600;2023-04-03T07:15:47;-0.40;99.90
7598;DHT22;3840;59.32098800;18.06423600;2023-04-03T07:18:13;-0.30;99.90
7598;DHT22;3840;59.32098800;18.06423600;2023-04-03T07:20:39;-0.50;99.90
7598;DHT22;3840;59.32098800;18.06423600;2023-04-03T07:23:06;-0.40;99.90
7598;DHT22;3840;59.32098800;18.06423600;2023-04-03T07:25:32;-0.40;99.90
7598;DHT22;3840;59.32098800;18.06423600;2023-04-03T07:27:59;-0.40;99.90
7598;DHT22;3840;59.32098800;18.06423600;2023-04-03T07:30:28;-0.30;99.90
7598;DHT22;3840;59.32098800;18.06423600;2023-04-03T07:32:54;-0.30;99.90
7598;DHT22;3840;59.32098800;18.06423600;2023-04-03T07:35:20;-0.30;99.90
7598;DHT22;3840;59.32098800;18.06423600;2023-04-03T07:37:46;-0.40;99.90
7598;DHT22;3840;59.32098800;18.06423600;2023-04-03T07:40:12;-0.10;99.90
7598;DHT22;3840;59.32098800;18.06423600;2023-04-03T07:42:38;0.00;99.90
7598;DHT22;3840;59.32098800;18.06423600;2023-04-03T07:45:04;0.00;99.90
7598;DHT22;3840;59.32098800;18.06423600;2023-04-03T07:47:32;0.10;99.90
7598;DHT22;3840;59.32098800;18.06423600;2023-04-03T07:49:57;0.10;99.90
7598;DHT22;3840;59.32098800;18.06423600;2023-04-03T07:52:24;0.00;99.90
7598;DHT22;3840;59.32098800;18.06423600;2023-04-03T07:54:50;0.10;99.90
7598;DHT22;3840;59.32098800;18.06423600;2023-04-03T07:57:16;0.10;99.90
7598;DHT22;3840;59.32098800;18.06423600;2023-04-03T07:59:42;0.10;99.90
7598;DHT22;3840;59.32098800;18.06423600;2023-04-03T08:02:14;0.20;99.90
7598;DHT22;3840;59.32098800;18.06423600;2023-04-03T08:04:40;0.20;99.90
7598;DHT22;3840;59.32098800;18.06423600;2023-04-03T08:07:07;0.10;99.90
7598;DHT22;3840;59.32098800;18.06423600;2023-04-03T08:09:33;0.10;99.90
7598;DHT22;3840;59.32098800;18.06423600;2023-04-03T08:11:59;0.10;99.90
7598;DHT22;3840;59.32098800;18.06423600;2023-04-03T08:14:30;0.30;99.90
7598;DHT22;3840;59.32098800;18.06423600;2023-04-03T08:16:56;0.20;99.90
7598;DHT22;3840;59.32098800;18.06423600;2023-04-03T08:19:24;0.30;99.90
7598;DHT22;3840;59.32098800;18.06423600;2023-04-03T08:21:50;0.40;99.90
7598;DHT22;3840;59.32098800;18.06423600;2023-04-03T08:24:17;0.40;99.90
7598;DHT22;3840;59.32098800;18.06423600;2023-04-03T08:26:43;0.40;99.90
7598;DHT22;3840;59.32098800;18.06423600;2023-04-03T08:29:09;0.50;99.90
7598;DHT22;3840;59.32098800;18.06423600;2023-04-03T08:31:34;0.60;99.90
7598;DHT22;3840;59.32098800;18.06423600;2023-04-03T08:34:00;0.50;99.90
7598;DHT22;3840;59.32098800;18.06423600;2023-04-03T08:36:27;0.40;99.90
7598;DHT22;3840;59.32098800;18.06423600;2023-04-03T08:38:56;0.40;99.90
7598;DHT22;3840;59.32098800;18.06423600;2023-04-03T08:41:32;0.50;99.90
7598;DHT22;3840;59.32098800;18.06423600;2023-04-03T08:50:05;0.50;99.90
7598;DHT22;3840;59.32098800;18.06423600;2023-04-03T08:52:46;0.60;99.90
7598;DHT22;3840;59.32098800;18.06423600;2023-04-03T08:55:28;0.70;99.90
7598;DHT22;3840;59.32098800;18.06423600;2023-04-03T08:58:06;0.70;99.90
7598;DHT22;3840;59.32098800;18.06423600;2023-04-03T09:03:15;0.70;99.90
7598;DHT22;3840;59.32098800;18.06423600;2023-04-03T09:05:47;0.60;99.90
7598;DHT22;3840;59.32098800;18.06423600;2023-04-03T09:08:26;0.60;99.90
7598;DHT22;3840;59.32098800;18.06423600;2023-04-03T09:17:13;0.80;99.90
7598;DHT22;3840;59.32098800;18.06423600;2023-04-03T09:22:19;1.00;99.90
7598;DHT22;3840;59.32098800;18.06423600;2023-04-03T09:25:34;1.00;99.90
7598;DHT22;3840;59.32098800;18.06423600;2023-04-03T09:27:35;1.10;99.90
7598;DHT22;3840;59.32098800;18.06423600;2023-04-03T09:30:01;1.10;99.90
7598;DHT22;3840;59.32098800;18.06423600;2023-04-03T09:32:33;1.10;99.90
7598;DHT22;3840;59.32098800;18.06423600;2023-04-03T09:35:03;1.20;99.90
7598;DHT22;3840;59.32098800;18.06423600;2023-04-03T09:38:13;1.20;99.90
7598;DHT22;3840;59.32098800;18.06423600;2023-04-03T09:40:45;1.20;99.90
7598;DHT22;3840;59.32098800;18.06423600;2023-04-03T09:43:30;1.30;99.90
7598;DHT22;3840;59.32098800;18.06423600;2023-04-03T09:48:56;1.40;99.90
7598;DHT22;3840;59.32098800;18.06423600;2023-04-03T09:51:28;1.40;99.90
7598;DHT22;3840;59.32098800;18.06423600;2023-04-03T09:53:55;1.40;99.90
7598;DHT22;3840;59.32098800;18.06423600;2023-04-03T09:56:28;1.50;99.90
7598;DHT22;3840;59.32098800;18.06423600;2023-04-03T10:01:34;1.60;99.90
7598;DHT22;3840;59.32098800;18.06423600;2023-04-03T10:04:10;1.60;99.90
7598;DHT22;3840;59.32098800;18.06423600;2023-04-03T10:06:44;1.60;99.90
7598;DHT22;3840;59.32098800;18.06423600;2023-04-03T10:09:32;1.70;99.90
7598;DHT22;3840;59.32098800;18.06423600;2023-04-03T10:12:05;1.70;99.90
7598;DHT22;3840;59.32098800;18.06423600;2023-04-03T10:14:35;1.70;99.90
7598;DHT22;3840;59.32098800;18.06423600;2023-04-03T10:19:58;1.70;99.90
7598;DHT22;3840;59.32098800;18.06423600;2023-04-03T10:28:11;1.80;99.90
7598;DHT22;3840;59.32098800;18.06423600;2023-04-03T10:39:14;2.00;99.90
7598;DHT22;3840;59.32098800;18.06423600;2023-04-03T10:41:52;2.10;99.90
7598;DHT22;3840;59.32098800;18.06423600;2023-04-03T10:47:32;2.10;99.90
7598;DHT22;3840;59.32098800;18.06423600;2023-04-03T10:52:42;2.30;99.90
7598;DHT22;3840;59.32098800;18.06423600;2023-04-03T10:58:03;2.20;99.90
7598;DHT22;3840;59.32098800;18.06423600;2023-04-03T11:00:40;2.20;99.90
7598;DHT22;3840;59.32098800;18.06423600;2023-04-03T11:05:53;2.30;99.90
7598;DHT22;3840;59.32098800;18.06423600;2023-04-03T11:11:08;2.40;99.90
7598;DHT22;3840;59.32098800;18.06423600;2023-04-03T11:13:55;2.40;99.90
7598;DHT22;3840;59.32098800;18.06423600;2023-04-03T11:16:28;2.30;99.90
7598;DHT22;3840;59.32098800;18.06423600;2023-04-03T11:21:52;2.50;99.90
7598;DHT22;3840;59.32098800;18.06423600;2023-04-03T11:24:27;2.60;99.90
7598;DHT22;3840;59.32098800;18.06423600;2023-04-03T11:26:55;2.60;99.90
7598;DHT22;3840;59.32098800;18.06423600;2023-04-03T11:29:27;2.60;99.90
7598;DHT22;3840;59.32098800;18.06423600;2023-04-03T11:34:37;2.50;99.90
7598;DHT22;3840;59.32098800;18.06423600;2023-04-03T11:37:28;2.80;99.90
7598;DHT22;3840;59.32098800;18.06423600;2023-04-03T11:40:42;2.30;99.90
7598;DHT22;3840;59.32098800;18.06423600;2023-04-03T11:42:55;2.70;99.90
7598;DHT22;3840;59.32098800;18.06423600;2023-04-03T11:45:33;2.70;99.90
7598;DHT22;3840;59.32098800;18.06423600;2023-04-03T11:48:41;2.40;99.90
7598;DHT22;3840;59.32098800;18.06423600;2023-04-03T11:50:51;2.70;99.90
7598;DHT22;3840;59.32098800;18.06423600;2023-04-03T11:53:31;2.80;99.90
7598;DHT22;3840;59.32098800;18.06423600;2023-04-03T11:56:02;2.80;99.90
7598;DHT22;3840;59.32098800;18.06423600;2023-04-03T11:58:35;2.80;99.90
7598;DHT22;3840;59.32098800;18.06423600;2023-04-03T12:01:10;2.70;99.90
7598;DHT22;3840;59.32098800;18.06423600;2023-04-03T12:16:32;2.80;99.90
7598;DHT22;3840;59.32098800;18.06423600;2023-04-03T12:24:35;2.90;99.90
7598;DHT22;3840;59.32098800;18.06423600;2023-04-03T12:29:38;3.00;99.90
7598;DHT22;3840;59.32098800;18.06423600;2023-04-03T12:32:34;3.10;99.90
7598;DHT22;3840;59.32098800;18.06423600;2023-04-03T12:37:52;3.20;99.90
7598;DHT22;3840;59.32098800;18.06423600;2023-04-03T12:40:55;3.10;99.90
7598;DHT22;3840;59.32098800;18.06423600;2023-04-03T12:46:03;3.10;99.90
7598;DHT22;3840;59.32098800;18.06423600;2023-04-03T12:48:31;3.20;99.90
7598;DHT22;3840;59.32098800;18.06423600;2023-04-03T12:50:59;3.20;99.90
7598;DHT22;3840;59.32098800;18.06423600;2023-04-03T12:53:28;3.30;99.90
7598;DHT22;3840;59.32098800;18.06423600;2023-04-03T12:55:57;3.20;99.90
7598;DHT22;3840;59.32098800;18.06423600;2023-04-03T12:58:26;3.30;99.90
7598;DHT22;3840;59.32098800;18.06423600;2023-04-03T13:01:00;3.30;99.90
7598;DHT22;3840;59.32098800;18.06423600;2023-04-03T13:03:27;3.30;99.90
7598;DHT22;3840;59.32098800;18.06423600;2023-04-03T13:05:57;3.30;99.90
7598;DHT22;3840;59.32098800;18.06423600;2023-04-03T13:08:25;3.30;99.90
7598;DHT22;3840;59.32098800;18.06423600;2023-04-03T13:11:11;3.40;99.90
7598;DHT22;3840;59.32098800;18.06423600;2023-04-03T13:13:38;3.40;99.90
7598;DHT22;3840;59.32098800;18.06423600;2023-04-03T13:16:09;3.40;99.90
7598;DHT22;3840;59.32098800;18.06423600;2023-04-03T13:18:36;3.40;99.90
7598;DHT22;3840;59.32098800;18.06423600;2023-04-03T13:21:10;3.40;99.90
7598;DHT22;3840;59.32098800;18.06423600;2023-04-03T13:23:40;3.40;99.90
7598;DHT22;3840;59.32098800;18.06423600;2023-04-03T13:26:08;3.50;99.90
7598;DHT22;3840;59.32098800;18.06423600;2023-04-03T13:28:34;3.50;99.90
7598;DHT22;3840;59.32098800;18.06423600;2023-04-03T13:36:37;3.60;99.90
7598;DHT22;3840;59.32098800;18.06423600;2023-04-03T13:39:19;3.60;99.90
7598;DHT22;3840;59.32098800;18.06423600;2023-04-03T13:41:52;3.60;99.90
7598;DHT22;3840;59.32098800;18.06423600;2023-04-03T13:46:56;3.50;99.90
7598;DHT22;3840;59.32098800;18.06423600;2023-04-03T13:49:31;3.60;99.90
7598;DHT22;3840;59.32098800;18.06423600;2023-04-03T13:51:57;3.60;99.90
7598;DHT22;3840;59.32098800;18.06423600;2023-04-03T13:54:33;3.60;99.90
7598;DHT22;3840;59.32098800;18.06423600;2023-04-03T13:57:01;3.60;99.90
7598;DHT22;3840;59.32098800;18.06423600;2023-04-03T13:59:33;3.60;99.90
7598;DHT22;3840;59.32098800;18.06423600;2023-04-03T14:02:30;3.60;99.90
7598;DHT22;3840;59.32098800;18.06423600;2023-04-03T14:04:59;3.70;99.90
7598;DHT22;3840;59.32098800;18.06423600;2023-04-03T14:07:28;3.70;99.90
7598;DHT22;3840;59.32098800;18.06423600;2023-04-03T14:09:55;3.60;99.90
7598;DHT22;3840;59.32098800;18.06423600;2023-04-03T14:12:36;3.80;99.90
7598;DHT22;3840;59.32098800;18.06423600;2023-04-03T14:15:22;3.60;99.90
7598;DHT22;3840;59.32098800;18.06423600;2023-04-03T14:17:51;3.60;99.90
7598;DHT22;3840;59.32098800;18.06423600;2023-04-03T14:20:20;3.70;99.90
7598;DHT22;3840;59.32098800;18.06423600;2023-04-03T14:22:47;3.70;99.90
7598;DHT22;3840;59.32098800;18.06423600;2023-04-03T14:25:15;3.80;99.90
7598;DHT22;3840;59.32098800;18.06423600;2023-04-03T14:27:44;3.80;99.90
7598;DHT22;3840;59.32098800;18.06423600;2023-04-03T14:30:19;3.80;99.90
7598;DHT22;3840;59.32098800;18.06423600;2023-04-03T14:32:46;3.70;99.90
7598;DHT22;3840;59.32098800;18.06423600;2023-04-03T14:35:13;3.70;99.90
7598;DHT22;3840;59.32098800;18.06423600;2023-04-03T14:37:41;3.70;99.90
7598;DHT22;3840;59.32098800;18.06423600;2023-04-03T14:40:11;3.70;99.90
7598;DHT22;3840;59.32098800;18.06423600;2023-04-03T14:42:38;3.80;99.90
7598;DHT22;3840;59.32098800;18.06423600;2023-04-03T14:45:07;3.80;99.90
7598;DHT22;3840;59.32098800;18.06423600;2023-04-03T14:47:39;3.70;99.90
7598;DHT22;3840;59.32098800;18.06423600;2023-04-03T14:50:11;3.70;99.90
7598;DHT22;3840;59.32098800;18.06423600;2023-04-03T14:52:41;3.80;99.90
7598;DHT22;3840;59.32098800;18.06423600;2023-04-03T14:55:07;3.70;99.90
7598;DHT22;3840;59.32098800;18.06423600;2023-04-03T14:57:33;3.80;99.90
7598;DHT22;3840;59.32098800;18.06423600;2023-04-03T15:00:01;3.70;99.90
7598;DHT22;3840;59.32098800;18.06423600;2023-04-03T15:02:36;3.70;99.90
7598;DHT22;3840;59.32098800;18.06423600;2023-04-03T15:05:04;3.70;99.90
7598;DHT22;3840;59.32098800;18.06423600;2023-04-03T15:07:33;3.70;99.90
7598;DHT22;3840;59.32098800;18.06423600;2023-04-03T15:10:14;3.70;99.90
7598;DHT22;3840;59.32098800;18.06423600;2023-04-03T15:12:42;3.70;99.90
7598;DHT22;3840;59.32098800;18.06423600;2023-04-03T15:15:08;3.70;99.90
7598;DHT22;3840;59.32098800;18.06423600;2023-04-03T15:17:36;3.70;99.90
7598;DHT22;3840;59.32098800;18.06423600;2023-04-03T15:20:03;3.70;99.90
7598;DHT22;3840;59.32098800;18.06423600;2023-04-03T15:22:28;3.70;99.90
7598;DHT22;3840;59.32098800;18.06423600;2023-04-03T15:24:54;3.70;99.90
7598;DHT22;3840;59.32098800;18.06423600;2023-04-03T15:27:22;3.80;99.90
7598;DHT22;3840;59.32098800;18.06423600;2023-04-03T15:29:49;3.80;99.90
7598;DHT22;3840;59.32098800;18.06423600;2023-04-03T15:32:14;3.80;99.90
7598;DHT22;3840;59.32098800;18.06423600;2023-04-03T15:34:41;3.80;99.90